Macon, Georgia
Current Conditions -  °F | °C
As of 2:53 AM on Sunday 26 Oct 2014 (Local Time) from KMCN Reporting Station
Clear Clear  
Wind Chill: 51°   Ceiling: Unl
Heat Index: 51°   Visibility: 10mi
Dew Point: 49°   Wind: 5mph
Humidity: 92%   Direction: 300°WNW
Pressure: 29.99"   Gusts: NA
Location:  32.84°N, 83.64°W
Report Text: KMCN 260653Z AUTO 30004KT 10SM CLR 11/09 A2999 RMK AO2 SLP151 T01060094 TSNO
Loading
Personal Weather Stations






























Interactive Weather Map New forecast layout! Learn more

10-Day Weather Forecast

Advertisements
Track Severe Weather on mobile